sensor_id;sensor_type;location;lat;lon;timestamp;P1;durP1;ratioP1;P2;durP2;ratioP2
65373;SDS011;52070;53.760;9.678;2023-07-20T00:00:09;3.63;;;2.78;;
65373;SDS011;52070;53.760;9.678;2023-07-20T00:02:38;4.85;;;2.90;;
65373;SDS011;52070;53.760;9.678;2023-07-20T00:05:05;6.80;;;2.97;;
65373;SDS011;52070;53.760;9.678;2023-07-20T00:07:32;4.15;;;2.75;;
65373;SDS011;52070;53.760;9.678;2023-07-20T00:09:59;3.97;;;2.92;;
65373;SDS011;52070;53.760;9.678;2023-07-20T00:12:26;3.20;;;2.78;;
65373;SDS011;52070;53.760;9.678;2023-07-20T00:14:54;5.05;;;2.55;;
65373;SDS011;52070;53.760;9.678;2023-07-20T00:17:21;5.53;;;3.05;;
65373;SDS011;52070;53.760;9.678;2023-07-20T00:19:48;4.68;;;3.15;;
65373;SDS011;52070;53.760;9.678;2023-07-20T00:22:15;3.17;;;2.88;;
65373;SDS011;52070;53.760;9.678;2023-07-20T00:24:42;5.60;;;3.00;;
65373;SDS011;52070;53.760;9.678;2023-07-20T00:27:09;6.93;;;3.05;;
65373;SDS011;52070;53.760;9.678;2023-07-20T00:29:36;3.72;;;3.00;;
65373;SDS011;52070;53.760;9.678;2023-07-20T00:32:05;6.05;;;3.33;;
65373;SDS011;52070;53.760;9.678;2023-07-20T00:34:32;5.45;;;3.33;;
65373;SDS011;52070;53.760;9.678;2023-07-20T00:36:59;5.65;;;3.28;;
65373;SDS011;52070;53.760;9.678;2023-07-20T00:39:26;6.55;;;3.67;;
65373;SDS011;52070;53.760;9.678;2023-07-20T00:41:53;4.63;;;3.60;;
65373;SDS011;52070;53.760;9.678;2023-07-20T00:44:20;4.50;;;3.88;;
65373;SDS011;52070;53.760;9.678;2023-07-20T00:46:47;8.13;;;3.90;;
65373;SDS011;52070;53.760;9.678;2023-07-20T00:49:15;6.10;;;4.10;;
65373;SDS011;52070;53.760;9.678;2023-07-20T00:51:46;4.68;;;3.60;;
65373;SDS011;52070;53.760;9.678;2023-07-20T00:54:14;6.65;;;3.92;;
65373;SDS011;52070;53.760;9.678;2023-07-20T00:56:42;7.10;;;4.90;;
65373;SDS011;52070;53.760;9.678;2023-07-20T00:59:09;5.22;;;3.78;;
65373;SDS011;52070;53.760;9.678;2023-07-20T01:01:37;5.07;;;4.10;;
65373;SDS011;52070;53.760;9.678;2023-07-20T01:04:04;6.45;;;4.10;;
65373;SDS011;52070;53.760;9.678;2023-07-20T01:06:34;6.43;;;3.97;;
65373;SDS011;52070;53.760;9.678;2023-07-20T01:09:09;7.45;;;5.05;;
65373;SDS011;52070;53.760;9.678;2023-07-20T01:11:43;6.82;;;4.20;;
65373;SDS011;52070;53.760;9.678;2023-07-20T01:14:20;5.75;;;4.35;;
65373;SDS011;52070;53.760;9.678;2023-07-20T01:16:50;6.90;;;4.07;;
65373;SDS011;52070;53.760;9.678;2023-07-20T01:19:17;8.23;;;4.78;;
65373;SDS011;52070;53.760;9.678;2023-07-20T01:21:47;6.80;;;4.82;;
65373;SDS011;52070;53.760;9.678;2023-07-20T01:24:26;8.18;;;4.93;;
65373;SDS011;52070;53.760;9.678;2023-07-20T01:27:25;8.25;;;5.15;;
65373;SDS011;52070;53.760;9.678;2023-07-20T01:33:16;7.65;;;4.85;;
65373;SDS011;52070;53.760;9.678;2023-07-20T01:35:44;7.65;;;4.75;;
65373;SDS011;52070;53.760;9.678;2023-07-20T01:38:14;8.70;;;5.18;;
65373;SDS011;52070;53.760;9.678;2023-07-20T01:40:43;9.20;;;4.80;;
65373;SDS011;52070;53.760;9.678;2023-07-20T01:43:10;6.72;;;5.28;;
65373;SDS011;52070;53.760;9.678;2023-07-20T01:45:38;10.40;;;5.63;;
65373;SDS011;52070;53.760;9.678;2023-07-20T01:48:05;7.38;;;5.22;;
65373;SDS011;52070;53.760;9.678;2023-07-20T01:50:34;8.40;;;4.93;;
65373;SDS011;52070;53.760;9.678;2023-07-20T01:53:01;8.23;;;5.30;;
65373;SDS011;52070;53.760;9.678;2023-07-20T01:55:27;7.88;;;5.05;;
65373;SDS011;52070;53.760;9.678;2023-07-20T01:57:55;9.63;;;5.35;;
65373;SDS011;52070;53.760;9.678;2023-07-20T02:00:22;9.57;;;5.53;;
65373;SDS011;52070;53.760;9.678;2023-07-20T02:02:49;8.75;;;5.45;;
65373;SDS011;52070;53.760;9.678;2023-07-20T02:05:17;11.05;;;5.85;;
65373;SDS011;52070;53.760;9.678;2023-07-20T02:07:45;8.95;;;5.90;;
65373;SDS011;52070;53.760;9.678;2023-07-20T02:10:13;7.70;;;5.70;;
65373;SDS011;52070;53.760;9.678;2023-07-20T02:12:40;8.77;;;5.88;;
65373;SDS011;52070;53.760;9.678;2023-07-20T02:15:07;6.30;;;5.65;;
65373;SDS011;52070;53.760;9.678;2023-07-20T02:17:35;8.07;;;6.18;;
65373;SDS011;52070;53.760;9.678;2023-07-20T02:20:02;9.60;;;6.10;;
65373;SDS011;52070;53.760;9.678;2023-07-20T02:22:30;9.57;;;6.07;;
65373;SDS011;52070;53.760;9.678;2023-07-20T02:24:58;7.95;;;5.72;;
65373;SDS011;52070;53.760;9.678;2023-07-20T02:27:25;7.18;;;5.78;;
65373;SDS011;52070;53.760;9.678;2023-07-20T02:29:52;7.13;;;5.80;;
65373;SDS011;52070;53.760;9.678;2023-07-20T02:32:19;9.90;;;6.10;;
65373;SDS011;52070;53.760;9.678;2023-07-20T02:34:46;9.30;;;6.55;;
65373;SDS011;52070;53.760;9.678;2023-07-20T02:37:13;10.15;;;6.68;;
65373;SDS011;52070;53.760;9.678;2023-07-20T02:39:40;10.88;;;5.93;;
65373;SDS011;52070;53.760;9.678;2023-07-20T02:42:08;10.30;;;5.93;;
65373;SDS011;52070;53.760;9.678;2023-07-20T02:44:35;7.07;;;5.88;;
65373;SDS011;52070;53.760;9.678;2023-07-20T02:47:02;8.07;;;6.20;;
65373;SDS011;52070;53.760;9.678;2023-07-20T02:49:29;9.88;;;6.03;;
65373;SDS011;52070;53.760;9.678;2023-07-20T02:51:56;9.48;;;6.38;;
65373;SDS011;52070;53.760;9.678;2023-07-20T02:54:23;9.48;;;6.35;;
65373;SDS011;52070;53.760;9.678;2023-07-20T02:56:50;7.05;;;5.88;;
65373;SDS011;52070;53.760;9.678;2023-07-20T02:59:18;8.13;;;6.00;;
65373;SDS011;52070;53.760;9.678;2023-07-20T03:01:45;8.43;;;6.63;;
65373;SDS011;52070;53.760;9.678;2023-07-20T03:04:12;9.23;;;6.13;;
65373;SDS011;52070;53.760;9.678;2023-07-20T03:06:39;8.88;;;6.25;;
65373;SDS011;52070;53.760;9.678;2023-07-20T03:09:06;8.02;;;6.28;;
65373;SDS011;52070;53.760;9.678;2023-07-20T03:11:34;10.30;;;6.32;;
65373;SDS011;52070;53.760;9.678;2023-07-20T03:14:01;9.50;;;6.32;;
65373;SDS011;52070;53.760;9.678;2023-07-20T03:16:30;9.70;;;6.10;;
65373;SDS011;52070;53.760;9.678;2023-07-20T03:18:58;8.40;;;5.40;;
65373;SDS011;52070;53.760;9.678;2023-07-20T03:21:26;13.13;;;5.75;;
65373;SDS011;52070;53.760;9.678;2023-07-20T03:23:53;9.18;;;5.13;;
65373;SDS011;52070;53.760;9.678;2023-07-20T03:26:19;13.65;;;4.82;;
65373;SDS011;52070;53.760;9.678;2023-07-20T03:28:46;6.70;;;4.68;;
65373;SDS011;52070;53.760;9.678;2023-07-20T03:31:13;7.60;;;4.80;;
65373;SDS011;52070;53.760;9.678;2023-07-20T03:33:42;8.38;;;4.07;;
65373;SDS011;52070;53.760;9.678;2023-07-20T03:36:09;7.30;;;4.43;;
65373;SDS011;52070;53.760;9.678;2023-07-20T03:38:36;9.43;;;4.20;;
65373;SDS011;52070;53.760;9.678;2023-07-20T03:41:03;7.38;;;4.13;;
65373;SDS011;52070;53.760;9.678;2023-07-20T03:43:30;9.27;;;4.38;;
65373;SDS011;52070;53.760;9.678;2023-07-20T03:45:57;8.32;;;3.95;;
65373;SDS011;52070;53.760;9.678;2023-07-20T03:48:24;9.63;;;3.95;;
65373;SDS011;52070;53.760;9.678;2023-07-20T03:50:53;6.18;;;3.90;;
65373;SDS011;52070;53.760;9.678;2023-07-20T03:53:21;8.85;;;3.58;;
65373;SDS011;52070;53.760;9.678;2023-07-20T03:55:48;6.00;;;3.78;;
65373;SDS011;52070;53.760;9.678;2023-07-20T03:58:15;7.70;;;3.80;;
65373;SDS011;52070;53.760;9.678;2023-07-20T04:00:44;6.50;;;4.22;;
65373;SDS011;52070;53.760;9.678;2023-07-20T04:03:11;7.07;;;3.60;;
65373;SDS011;52070;53.760;9.678;2023-07-20T04:05:39;9.05;;;4.43;;
65373;SDS011;52070;53.760;9.678;2023-07-20T04:08:07;6.55;;;4.28;;
65373;SDS011;52070;53.760;9.678;2023-07-20T04:10:34;8.30;;;4.32;;
65373;SDS011;52070;53.760;9.678;2023-07-20T04:13:01;8.07;;;4.80;;
65373;SDS011;52070;53.760;9.678;2023-07-20T04:15:28;10.50;;;4.57;;
65373;SDS011;52070;53.760;9.678;2023-07-20T04:17:55;6.00;;;4.80;;
65373;SDS011;52070;53.760;9.678;2023-07-20T04:20:22;7.57;;;4.63;;
65373;SDS011;52070;53.760;9.678;2023-07-20T04:22:50;8.15;;;5.30;;
65373;SDS011;52070;53.760;9.678;2023-07-20T04:25:18;7.13;;;5.20;;
65373;SDS011;52070;53.760;9.678;2023-07-20T04:27:45;11.00;;;5.07;;
65373;SDS011;52070;53.760;9.678;2023-07-20T04:30:12;8.45;;;5.50;;
65373;SDS011;52070;53.760;9.678;2023-07-20T04:32:41;5.05;;;4.50;;
65373;SDS011;52070;53.760;9.678;2023-07-20T04:35:09;8.20;;;5.40;;
65373;SDS011;52070;53.760;9.678;2023-07-20T04:37:36;10.55;;;5.00;;
65373;SDS011;52070;53.760;9.678;2023-07-20T04:40:03;9.57;;;5.63;;
65373;SDS011;52070;53.760;9.678;2023-07-20T04:42:33;9.55;;;6.00;;
65373;SDS011;52070;53.760;9.678;2023-07-20T04:45:00;8.45;;;5.60;;
65373;SDS011;52070;53.760;9.678;2023-07-20T04:47:26;10.60;;;5.80;;
65373;SDS011;52070;53.760;9.678;2023-07-20T04:49:53;9.88;;;5.47;;
65373;SDS011;52070;53.760;9.678;2023-07-20T04:52:20;11.55;;;5.68;;
65373;SDS011;52070;53.760;9.678;2023-07-20T04:54:48;9.55;;;5.60;;
65373;SDS011;52070;53.760;9.678;2023-07-20T04:57:15;12.40;;;5.70;;
65373;SDS011;52070;53.760;9.678;2023-07-20T04:59:43;9.40;;;5.28;;
65373;SDS011;52070;53.760;9.678;2023-07-20T05:02:10;10.95;;;5.30;;
65373;SDS011;52070;53.760;9.678;2023-07-20T05:04:37;8.13;;;5.20;;
65373;SDS011;52070;53.760;9.678;2023-07-20T05:07:04;7.10;;;5.18;;
65373;SDS011;52070;53.760;9.678;2023-07-20T05:09:32;9.02;;;5.43;;
65373;SDS011;52070;53.760;9.678;2023-07-20T05:11:59;7.78;;;4.95;;
65373;SDS011;52070;53.760;9.678;2023-07-20T05:14:27;6.68;;;4.72;;
65373;SDS011;52070;53.760;9.678;2023-07-20T05:16:55;8.57;;;5.03;;
65373;SDS011;52070;53.760;9.678;2023-07-20T05:19:22;8.15;;;4.05;;
65373;SDS011;52070;53.760;9.678;2023-07-20T05:21:51;7.38;;;3.80;;
65373;SDS011;52070;53.760;9.678;2023-07-20T05:24:18;6.28;;;3.60;;
65373;SDS011;52070;53.760;9.678;2023-07-20T05:26:45;11.75;;;3.78;;
65373;SDS011;52070;53.760;9.678;2023-07-20T05:29:11;4.55;;;3.50;;
65373;SDS011;52070;53.760;9.678;2023-07-20T05:31:38;9.32;;;3.40;;
65373;SDS011;52070;53.760;9.678;2023-07-20T05:34:07;7.00;;;3.47;;
65373;SDS011;52070;53.760;9.678;2023-07-20T05:36:34;6.57;;;3.40;;
65373;SDS011;52070;53.760;9.678;2023-07-20T05:39:00;9.63;;;3.28;;
65373;SDS011;52070;53.760;9.678;2023-07-20T05:41:27;9.63;;;3.10;;
65373;SDS011;52070;53.760;9.678;2023-07-20T05:43:54;6.75;;;3.08;;
65373;SDS011;52070;53.760;9.678;2023-07-20T05:46:21;5.72;;;3.17;;
65373;SDS011;52070;53.760;9.678;2023-07-20T05:48:49;7.28;;;2.58;;
65373;SDS011;52070;53.760;9.678;2023-07-20T05:51:18;8.85;;;2.60;;
65373;SDS011;52070;53.760;9.678;2023-07-20T05:53:45;6.28;;;2.67;;
65373;SDS011;52070;53.760;9.678;2023-07-20T05:56:13;9.43;;;2.40;;
65373;SDS011;52070;53.760;9.678;2023-07-20T05:58:40;7.70;;;2.40;;
65373;SDS011;52070;53.760;9.678;2023-07-20T06:01:07;6.85;;;2.22;;
65373;SDS011;52070;53.760;9.678;2023-07-20T06:03:34;5.70;;;2.17;;
65373;SDS011;52070;53.760;9.678;2023-07-20T06:06:01;4.18;;;1.77;;
65373;SDS011;52070;53.760;9.678;2023-07-20T06:08:31;6.43;;;2.05;;
65373;SDS011;52070;53.760;9.678;2023-07-20T06:10:58;6.30;;;1.95;;
65373;SDS011;52070;53.760;9.678;2023-07-20T06:13:24;7.43;;;1.80;;
65373;SDS011;52070;53.760;9.678;2023-07-20T06:15:52;5.35;;;1.42;;
65373;SDS011;52070;53.760;9.678;2023-07-20T06:18:19;5.97;;;1.40;;
65373;SDS011;52070;53.760;9.678;2023-07-20T06:20:49;7.80;;;1.85;;
65373;SDS011;52070;53.760;9.678;2023-07-20T06:23:18;5.95;;;1.48;;
65373;SDS011;52070;53.760;9.678;2023-07-20T06:25:46;6.45;;;1.67;;
65373;SDS011;52070;53.760;9.678;2023-07-20T06:28:14;4.03;;;1.40;;
65373;SDS011;52070;53.760;9.678;2023-07-20T06:30:41;4.63;;;1.40;;
65373;SDS011;52070;53.760;9.678;2023-07-20T06:33:08;2.20;;;1.20;;
65373;SDS011;52070;53.760;9.678;2023-07-20T06:35:35;3.50;;;1.13;;
65373;SDS011;52070;53.760;9.678;2023-07-20T06:38:02;3.08;;;1.20;;
65373;SDS011;52070;53.760;9.678;2023-07-20T06:40:29;4.72;;;1.15;;
65373;SDS011;52070;53.760;9.678;2023-07-20T06:42:57;2.50;;;1.30;;
65373;SDS011;52070;53.760;9.678;2023-07-20T06:45:24;6.72;;;1.63;;
65373;SDS011;52070;53.760;9.678;2023-07-20T06:47:51;3.97;;;1.60;;
65373;SDS011;52070;53.760;9.678;2023-07-20T06:50:18;6.93;;;1.40;;
65373;SDS011;52070;53.760;9.678;2023-07-20T06:52:45;6.88;;;1.88;;
65373;SDS011;52070;53.760;9.678;2023-07-20T06:55:13;7.53;;;1.98;;
65373;SDS011;52070;53.760;9.678;2023-07-20T06:57:40;5.13;;;1.73;;
65373;SDS011;52070;53.760;9.678;2023-07-20T07:00:09;10.80;;;2.20;;
65373;SDS011;52070;53.760;9.678;2023-07-20T07:02:37;4.70;;;1.50;;
65373;SDS011;52070;53.760;9.678;2023-07-20T07:05:05;4.13;;;1.40;;
65373;SDS011;52070;53.760;9.678;2023-07-20T07:07:32;2.65;;;1.35;;
65373;SDS011;52070;53.760;9.678;2023-07-20T07:09:59;6.25;;;1.55;;
65373;SDS011;52070;53.760;9.678;2023-07-20T07:12:26;4.68;;;1.63;;
65373;SDS011;52070;53.760;9.678;2023-07-20T07:14:53;4.35;;;1.48;;
65373;SDS011;52070;53.760;9.678;2023-07-20T07:17:22;5.25;;;1.58;;
65373;SDS011;52070;53.760;9.678;2023-07-20T07:19:49;9.52;;;1.55;;
65373;SDS011;52070;53.760;9.678;2023-07-20T07:22:18;5.90;;;1.85;;
65373;SDS011;52070;53.760;9.678;2023-07-20T07:24:45;4.75;;;1.90;;
65373;SDS011;52070;53.760;9.678;2023-07-20T07:27:12;5.40;;;1.90;;
65373;SDS011;52070;53.760;9.678;2023-07-20T07:29:41;5.75;;;1.80;;
65373;SDS011;52070;53.760;9.678;2023-07-20T07:32:09;7.57;;;2.13;;
65373;SDS011;52070;53.760;9.678;2023-07-20T07:34:38;7.65;;;2.13;;
65373;SDS011;52070;53.760;9.678;2023-07-20T07:37:06;7.80;;;2.65;;
65373;SDS011;52070;53.760;9.678;2023-07-20T07:39:33;6.20;;;2.28;;
65373;SDS011;52070;53.760;9.678;2023-07-20T07:42:00;7.57;;;2.10;;
65373;SDS011;52070;53.760;9.678;2023-07-20T07:44:26;10.52;;;2.33;;
65373;SDS011;52070;53.760;9.678;2023-07-20T07:46:53;8.68;;;2.45;;
65373;SDS011;52070;53.760;9.678;2023-07-20T07:49:20;6.15;;;2.03;;
65373;SDS011;52070;53.760;9.678;2023-07-20T07:51:49;7.22;;;2.33;;
65373;SDS011;52070;53.760;9.678;2023-07-20T07:54:17;9.27;;;2.35;;
65373;SDS011;52070;53.760;9.678;2023-07-20T07:56:44;6.90;;;2.33;;
65373;SDS011;52070;53.760;9.678;2023-07-20T07:59:11;8.60;;;2.40;;
65373;SDS011;52070;53.760;9.678;2023-07-20T08:01:38;8.60;;;2.20;;
65373;SDS011;52070;53.760;9.678;2023-07-20T08:04:05;6.00;;;1.73;;
65373;SDS011;52070;53.760;9.678;2023-07-20T08:06:32;8.35;;;1.70;;
65373;SDS011;52070;53.760;9.678;2023-07-20T08:09:00;6.57;;;1.63;;
65373;SDS011;52070;53.760;9.678;2023-07-20T08:11:28;5.22;;;1.13;;
65373;SDS011;52070;53.760;9.678;2023-07-20T08:13:56;7.85;;;1.83;;
65373;SDS011;52070;53.760;9.678;2023-07-20T08:16:23;4.15;;;1.20;;
65373;SDS011;52070;53.760;9.678;2023-07-20T08:18:50;5.07;;;1.20;;
65373;SDS011;52070;53.760;9.678;2023-07-20T08:21:17;5.93;;;1.05;;
65373;SDS011;52070;53.760;9.678;2023-07-20T08:23:44;4.75;;;0.90;;
65373;SDS011;52070;53.760;9.678;2023-07-20T08:26:12;2.67;;;1.05;;
65373;SDS011;52070;53.760;9.678;2023-07-20T08:28:39;2.13;;;0.70;;
65373;SDS011;52070;53.760;9.678;2023-07-20T08:31:06;3.63;;;1.15;;
65373;SDS011;52070;53.760;9.678;2023-07-20T08:33:33;2.78;;;1.00;;
65373;SDS011;52070;53.760;9.678;2023-07-20T08:36:00;3.72;;;0.90;;
65373;SDS011;52070;53.760;9.678;2023-07-20T08:38:29;6.88;;;1.10;;
65373;SDS011;52070;53.760;9.678;2023-07-20T08:40:56;10.25;;;1.65;;
65373;SDS011;52070;53.760;9.678;2023-07-20T08:43:26;3.03;;;1.10;;
65373;SDS011;52070;53.760;9.678;2023-07-20T08:45:54;6.85;;;1.40;;
65373;SDS011;52070;53.760;9.678;2023-07-20T08:48:22;7.88;;;1.73;;
65373;SDS011;52070;53.760;9.678;2023-07-20T08:50:49;5.53;;;1.08;;
65373;SDS011;52070;53.760;9.678;2023-07-20T08:53:18;6.50;;;1.33;;
65373;SDS011;52070;53.760;9.678;2023-07-20T08:55:45;5.60;;;1.50;;
65373;SDS011;52070;53.760;9.678;2023-07-20T08:58:12;5.22;;;1.25;;
65373;SDS011;52070;53.760;9.678;2023-07-20T09:00:41;5.90;;;0.90;;
65373;SDS011;52070;53.760;9.678;2023-07-20T09:03:09;3.00;;;0.80;;
65373;SDS011;52070;53.760;9.678;2023-07-20T09:05:37;3.88;;;1.20;;
65373;SDS011;52070;53.760;9.678;2023-07-20T09:08:05;3.92;;;1.00;;
65373;SDS011;52070;53.760;9.678;2023-07-20T09:10:32;3.00;;;0.90;;
65373;SDS011;52070;53.760;9.678;2023-07-20T09:12:59;6.28;;;0.90;;
65373;SDS011;52070;53.760;9.678;2023-07-20T09:15:28;2.97;;;0.85;;
65373;SDS011;52070;53.760;9.678;2023-07-20T09:17:58;5.40;;;0.90;;
65373;SDS011;52070;53.760;9.678;2023-07-20T09:20:30;4.55;;;1.05;;
65373;SDS011;52070;53.760;9.678;2023-07-20T09:22:58;4.03;;;0.73;;
65373;SDS011;52070;53.760;9.678;2023-07-20T09:25:25;4.75;;;1.40;;
65373;SDS011;52070;53.760;9.678;2023-07-20T09:27:53;4.78;;;0.93;;
65373;SDS011;52070;53.760;9.678;2023-07-20T09:30:21;3.65;;;0.70;;
65373;SDS011;52070;53.760;9.678;2023-07-20T09:32:52;7.40;;;1.08;;
65373;SDS011;52070;53.760;9.678;2023-07-20T09:35:20;7.03;;;0.98;;
65373;SDS011;52070;53.760;9.678;2023-07-20T09:37:49;3.55;;;0.95;;
65373;SDS011;52070;53.760;9.678;2023-07-20T09:40:18;4.82;;;1.20;;
65373;SDS011;52070;53.760;9.678;2023-07-20T09:42:46;3.85;;;1.10;;
65373;SDS011;52070;53.760;9.678;2023-07-20T09:45:13;4.65;;;0.80;;
65373;SDS011;52070;53.760;9.678;2023-07-20T09:47:40;6.65;;;1.05;;
65373;SDS011;52070;53.760;9.678;2023-07-20T09:50:08;3.33;;;0.95;;
65373;SDS011;52070;53.760;9.678;2023-07-20T09:52:40;6.53;;;1.30;;
65373;SDS011;52070;53.760;9.678;2023-07-20T09:55:09;5.88;;;1.25;;
65373;SDS011;52070;53.760;9.678;2023-07-20T09:57:38;4.07;;;1.05;;
65373;SDS011;52070;53.760;9.678;2023-07-20T10:00:05;6.25;;;1.30;;
65373;SDS011;52070;53.760;9.678;2023-07-20T10:02:41;5.68;;;1.27;;
65373;SDS011;52070;53.760;9.678;2023-07-20T10:05:11;4.90;;;1.20;;
65373;SDS011;52070;53.760;9.678;2023-07-20T10:07:42;4.18;;;1.20;;
65373;SDS011;52070;53.760;9.678;2023-07-20T10:10:12;8.40;;;1.23;;
65373;SDS011;52070;53.760;9.678;2023-07-20T10:12:42;7.70;;;1.45;;
65373;SDS011;52070;53.760;9.678;2023-07-20T10:17:47;3.78;;;0.90;;
65373;SDS011;52070;53.760;9.678;2023-07-20T10:20:22;4.30;;;1.00;;
65373;SDS011;52070;53.760;9.678;2023-07-20T10:22:53;6.15;;;1.10;;
65373;SDS011;52070;53.760;9.678;2023-07-20T10:25:22;5.47;;;1.40;;
65373;SDS011;52070;53.760;9.678;2023-07-20T10:27:49;6.78;;;1.10;;
65373;SDS011;52070;53.760;9.678;2023-07-20T10:30:17;3.60;;;1.08;;
65373;SDS011;52070;53.760;9.678;2023-07-20T10:32:45;2.63;;;0.70;;
65373;SDS011;52070;53.760;9.678;2023-07-20T10:35:14;4.00;;;1.00;;
65373;SDS011;52070;53.760;9.678;2023-07-20T10:37:46;1.80;;;0.77;;
65373;SDS011;52070;53.760;9.678;2023-07-20T10:40:26;4.20;;;0.80;;
65373;SDS011;52070;53.760;9.678;2023-07-20T10:42:57;1.90;;;0.70;;
65373;SDS011;52070;53.760;9.678;2023-07-20T10:48:18;4.63;;;0.90;;
65373;SDS011;52070;53.760;9.678;2023-07-20T10:50:46;3.45;;;0.98;;
65373;SDS011;52070;53.760;9.678;2023-07-20T10:56:08;5.90;;;1.00;;
65373;SDS011;52070;53.760;9.678;2023-07-20T10:58:39;7.07;;;1.02;;
65373;SDS011;52070;53.760;9.678;2023-07-20T11:01:06;7.05;;;1.23;;
65373;SDS011;52070;53.760;9.678;2023-07-20T11:03:35;5.45;;;0.98;;
65373;SDS011;52070;53.760;9.678;2023-07-20T11:09:04;3.90;;;0.80;;
65373;SDS011;52070;53.760;9.678;2023-07-20T11:11:34;5.35;;;0.98;;
65373;SDS011;52070;53.760;9.678;2023-07-20T11:14:02;2.92;;;0.60;;
65373;SDS011;52070;53.760;9.678;2023-07-20T11:16:34;2.83;;;0.50;;
65373;SDS011;52070;53.760;9.678;2023-07-20T11:19:01;13.75;;;1.10;;
65373;SDS011;52070;53.760;9.678;2023-07-20T11:21:28;6.38;;;1.10;;
65373;SDS011;52070;53.760;9.678;2023-07-20T11:23:56;5.10;;;0.80;;
65373;SDS011;52070;53.760;9.678;2023-07-20T11:26:23;2.80;;;0.80;;
65373;SDS011;52070;53.760;9.678;2023-07-20T11:28:51;5.60;;;1.17;;
65373;SDS011;52070;53.760;9.678;2023-07-20T11:31:18;6.22;;;1.25;;
65373;SDS011;52070;53.760;9.678;2023-07-20T11:33:46;5.07;;;1.23;;
65373;SDS011;52070;53.760;9.678;2023-07-20T11:36:13;4.32;;;1.00;;
65373;SDS011;52070;53.760;9.678;2023-07-20T11:38:43;4.00;;;1.20;;
65373;SDS011;52070;53.760;9.678;2023-07-20T11:41:12;6.20;;;1.30;;
65373;SDS011;52070;53.760;9.678;2023-07-20T11:43:40;7.97;;;1.20;;
65373;SDS011;52070;53.760;9.678;2023-07-20T11:46:09;5.60;;;1.10;;
65373;SDS011;52070;53.760;9.678;2023-07-20T11:48:36;5.43;;;1.05;;
65373;SDS011;52070;53.760;9.678;2023-07-20T11:51:03;4.13;;;1.20;;
65373;SDS011;52070;53.760;9.678;2023-07-20T11:53:30;2.47;;;0.95;;
65373;SDS011;52070;53.760;9.678;2023-07-20T11:55:58;8.43;;;1.30;;
65373;SDS011;52070;53.760;9.678;2023-07-20T11:58:27;5.90;;;1.40;;
65373;SDS011;52070;53.760;9.678;2023-07-20T12:00:54;6.38;;;1.10;;
65373;SDS011;52070;53.760;9.678;2023-07-20T12:03:23;5.15;;;1.08;;
65373;SDS011;52070;53.760;9.678;2023-07-20T12:05:50;8.73;;;1.10;;
65373;SDS011;52070;53.760;9.678;2023-07-20T12:08:17;9.27;;;1.23;;
65373;SDS011;52070;53.760;9.678;2023-07-20T12:10:44;7.03;;;1.20;;
65373;SDS011;52070;53.760;9.678;2023-07-20T12:13:12;4.35;;;1.15;;
65373;SDS011;52070;53.760;9.678;2023-07-20T12:15:39;2.00;;;0.80;;
65373;SDS011;52070;53.760;9.678;2023-07-20T12:18:06;4.90;;;1.10;;
65373;SDS011;52070;53.760;9.678;2023-07-20T12:20:35;7.78;;;1.08;;
65373;SDS011;52070;53.760;9.678;2023-07-20T12:23:04;7.00;;;1.05;;
65373;SDS011;52070;53.760;9.678;2023-07-20T12:25:32;6.07;;;1.00;;
65373;SDS011;52070;53.760;9.678;2023-07-20T12:28:00;5.18;;;0.93;;
65373;SDS011;52070;53.760;9.678;2023-07-20T12:30:29;3.55;;;1.00;;
65373;SDS011;52070;53.760;9.678;2023-07-20T12:32:56;5.30;;;1.13;;
65373;SDS011;52070;53.760;9.678;2023-07-20T12:35:23;7.10;;;1.00;;
65373;SDS011;52070;53.760;9.678;2023-07-20T12:37:51;4.28;;;1.00;;
65373;SDS011;52070;53.760;9.678;2023-07-20T12:40:19;7.78;;;1.10;;
65373;SDS011;52070;53.760;9.678;2023-07-20T12:42:46;8.18;;;1.20;;
65373;SDS011;52070;53.760;9.678;2023-07-20T12:45:13;4.07;;;1.08;;
65373;SDS011;52070;53.760;9.678;2023-07-20T12:47:40;2.30;;;0.90;;
65373;SDS011;52070;53.760;9.678;2023-07-20T12:50:09;8.38;;;0.90;;
65373;SDS011;52070;53.760;9.678;2023-07-20T12:52:36;5.40;;;1.05;;
65373;SDS011;52070;53.760;9.678;2023-07-20T12:55:06;3.90;;;0.73;;
65373;SDS011;52070;53.760;9.678;2023-07-20T12:57:35;5.75;;;1.23;;
65373;SDS011;52070;53.760;9.678;2023-07-20T13:00:02;2.72;;;1.20;;
65373;SDS011;52070;53.760;9.678;2023-07-20T13:02:30;3.80;;;0.88;;
65373;SDS011;52070;53.760;9.678;2023-07-20T13:04:57;6.00;;;1.30;;
65373;SDS011;52070;53.760;9.678;2023-07-20T13:07:31;6.45;;;0.88;;
65373;SDS011;52070;53.760;9.678;2023-07-20T13:09:58;8.15;;;1.20;;
65373;SDS011;52070;53.760;9.678;2023-07-20T13:12:28;5.32;;;1.00;;
65373;SDS011;52070;53.760;9.678;2023-07-20T13:17:26;3.03;;;0.70;;
65373;SDS011;52070;53.760;9.678;2023-07-20T13:19:53;3.08;;;0.80;;
65373;SDS011;52070;53.760;9.678;2023-07-20T13:22:20;3.33;;;0.60;;
65373;SDS011;52070;53.760;9.678;2023-07-20T13:24:48;2.38;;;0.80;;
65373;SDS011;52070;53.760;9.678;2023-07-20T13:27:15;4.13;;;0.80;;
65373;SDS011;52070;53.760;9.678;2023-07-20T13:29:44;4.90;;;0.70;;
65373;SDS011;52070;53.760;9.678;2023-07-20T13:32:12;4.05;;;0.80;;
65373;SDS011;52070;53.760;9.678;2023-07-20T13:34:40;4.78;;;0.93;;
65373;SDS011;52070;53.760;9.678;2023-07-20T13:37:07;4.18;;;1.05;;
65373;SDS011;52070;53.760;9.678;2023-07-20T13:39:35;3.28;;;0.75;;
65373;SDS011;52070;53.760;9.678;2023-07-20T13:42:02;4.22;;;1.40;;
65373;SDS011;52070;53.760;9.678;2023-07-20T13:44:30;6.53;;;0.88;;
65373;SDS011;52070;53.760;9.678;2023-07-20T13:46:59;2.78;;;0.73;;
65373;SDS011;52070;53.760;9.678;2023-07-20T13:49:26;3.72;;;1.00;;
65373;SDS011;52070;53.760;9.678;2023-07-20T13:51:54;7.95;;;1.25;;
65373;SDS011;52070;53.760;9.678;2023-07-20T13:54:22;5.20;;;0.90;;
65373;SDS011;52070;53.760;9.678;2023-07-20T13:56:49;5.47;;;1.10;;
65373;SDS011;52070;53.760;9.678;2023-07-20T13:59:16;4.95;;;0.90;;
65373;SDS011;52070;53.760;9.678;2023-07-20T14:01:43;3.40;;;0.80;;
65373;SDS011;52070;53.760;9.678;2023-07-20T14:04:11;4.13;;;0.90;;
65373;SDS011;52070;53.760;9.678;2023-07-20T14:06:38;3.65;;;0.80;;
65373;SDS011;52070;53.760;9.678;2023-07-20T14:09:05;3.97;;;0.90;;
65373;SDS011;52070;53.760;9.678;2023-07-20T14:11:32;4.07;;;0.90;;
65373;SDS011;52070;53.760;9.678;2023-07-20T14:13:59;5.85;;;0.82;;
65373;SDS011;52070;53.760;9.678;2023-07-20T14:16:26;3.22;;;0.80;;
65373;SDS011;52070;53.760;9.678;2023-07-20T14:18:53;4.95;;;0.98;;
65373;SDS011;52070;53.760;9.678;2023-07-20T14:21:21;3.90;;;0.80;;
65373;SDS011;52070;53.760;9.678;2023-07-20T14:23:49;5.45;;;0.90;;
65373;SDS011;52070;53.760;9.678;2023-07-20T14:26:18;3.83;;;1.25;;
65373;SDS011;52070;53.760;9.678;2023-07-20T14:28:45;3.85;;;1.42;;
65373;SDS011;52070;53.760;9.678;2023-07-20T14:31:12;5.50;;;1.08;;
65373;SDS011;52070;53.760;9.678;2023-07-20T14:33:39;6.53;;;1.40;;
65373;SDS011;52070;53.760;9.678;2023-07-20T14:36:06;4.90;;;1.60;;
65373;SDS011;52070;53.760;9.678;2023-07-20T14:38:34;3.95;;;1.08;;
65373;SDS011;52070;53.760;9.678;2023-07-20T14:41:01;5.90;;;1.10;;
65373;SDS011;52070;53.760;9.678;2023-07-20T14:43:29;3.58;;;1.20;;
65373;SDS011;52070;53.760;9.678;2023-07-20T14:45:55;5.95;;;1.60;;
65373;SDS011;52070;53.760;9.678;2023-07-20T14:48:22;9.02;;;1.35;;
65373;SDS011;52070;53.760;9.678;2023-07-20T14:50:49;5.40;;;1.40;;
65373;SDS011;52070;53.760;9.678;2023-07-20T14:53:16;5.05;;;1.27;;
65373;SDS011;52070;53.760;9.678;2023-07-20T14:55:45;5.55;;;1.00;;
65373;SDS011;52070;53.760;9.678;2023-07-20T14:58:12;8.82;;;1.20;;
65373;SDS011;52070;53.760;9.678;2023-07-20T15:00:39;3.75;;;1.10;;
65373;SDS011;52070;53.760;9.678;2023-07-20T15:03:05;12.00;;;1.30;;
65373;SDS011;52070;53.760;9.678;2023-07-20T15:05:35;5.10;;;1.20;;
65373;SDS011;52070;53.760;9.678;2023-07-20T15:08:03;7.30;;;1.30;;